sensor_id;sensor_type;location;lat;lon;timestamp;P1;durP1;ratioP1;P2;durP2;ratioP2
59006;SDS011;44792;52.760;6.726;2023-04-05T00:01:28;9.43;;;5.10;;
59006;SDS011;44792;52.760;6.726;2023-04-05T00:03:55;11.32;;;5.28;;
59006;SDS011;44792;52.760;6.726;2023-04-05T00:06:25;12.60;;;5.38;;
59006;SDS011;44792;52.760;6.726;2023-04-05T00:08:53;11.50;;;4.97;;
59006;SDS011;44792;52.760;6.726;2023-04-05T00:11:20;13.23;;;5.38;;
59006;SDS011;44792;52.760;6.726;2023-04-05T00:13:47;9.35;;;5.90;;
59006;SDS011;44792;52.760;6.726;2023-04-05T00:16:14;9.90;;;5.03;;
59006;SDS011;44792;52.760;6.726;2023-04-05T00:18:40;10.00;;;5.00;;
59006;SDS011;44792;52.760;6.726;2023-04-05T00:21:17;9.35;;;4.90;;
59006;SDS011;44792;52.760;6.726;2023-04-05T00:23:49;9.38;;;5.65;;
59006;SDS011;44792;52.760;6.726;2023-04-05T00:26:17;9.52;;;5.50;;
59006;SDS011;44792;52.760;6.726;2023-04-05T00:28:43;7.05;;;5.00;;
59006;SDS011;44792;52.760;6.726;2023-04-05T00:31:09;10.63;;;5.07;;
59006;SDS011;44792;52.760;6.726;2023-04-05T00:33:35;10.95;;;5.88;;
59006;SDS011;44792;52.760;6.726;2023-04-05T00:36:08;12.95;;;5.50;;
59006;SDS011;44792;52.760;6.726;2023-04-05T00:38:35;9.70;;;5.40;;
59006;SDS011;44792;52.760;6.726;2023-04-05T00:41:01;9.38;;;5.10;;
59006;SDS011;44792;52.760;6.726;2023-04-05T00:43:27;8.55;;;6.18;;
59006;SDS011;44792;52.760;6.726;2023-04-05T00:45:52;10.55;;;4.63;;
59006;SDS011;44792;52.760;6.726;2023-04-05T00:48:19;8.88;;;5.30;;
59006;SDS011;44792;52.760;6.726;2023-04-05T00:50:46;10.07;;;5.22;;
59006;SDS011;44792;52.760;6.726;2023-04-05T00:53:14;9.85;;;5.55;;
59006;SDS011;44792;52.760;6.726;2023-04-05T00:55:42;9.32;;;5.18;;
59006;SDS011;44792;52.760;6.726;2023-04-05T00:58:09;9.35;;;6.35;;
59006;SDS011;44792;52.760;6.726;2023-04-05T01:00:37;9.90;;;5.32;;
59006;SDS011;44792;52.760;6.726;2023-04-05T01:03:04;14.07;;;5.85;;
59006;SDS011;44792;52.760;6.726;2023-04-05T01:05:38;8.10;;;5.10;;
59006;SDS011;44792;52.760;6.726;2023-04-05T01:08:21;11.02;;;5.88;;
59006;SDS011;44792;52.760;6.726;2023-04-05T01:10:59;10.32;;;5.68;;
59006;SDS011;44792;52.760;6.726;2023-04-05T01:13:30;12.48;;;5.47;;
59006;SDS011;44792;52.760;6.726;2023-04-05T01:15:57;13.10;;;5.68;;
59006;SDS011;44792;52.760;6.726;2023-04-05T01:18:23;10.13;;;5.22;;
59006;SDS011;44792;52.760;6.726;2023-04-05T01:21:25;9.68;;;5.50;;
59006;SDS011;44792;52.760;6.726;2023-04-05T01:30:05;8.40;;;5.22;;
59006;SDS011;44792;52.760;6.726;2023-04-05T01:35:37;11.43;;;5.22;;
59006;SDS011;44792;52.760;6.726;2023-04-05T01:38:09;12.77;;;5.45;;
59006;SDS011;44792;52.760;6.726;2023-04-05T01:40:40;9.45;;;5.50;;
59006;SDS011;44792;52.760;6.726;2023-04-05T01:43:13;11.40;;;5.40;;
59006;SDS011;44792;52.760;6.726;2023-04-05T01:45:40;11.32;;;5.18;;
59006;SDS011;44792;52.760;6.726;2023-04-05T01:48:06;10.43;;;5.53;;
59006;SDS011;44792;52.760;6.726;2023-04-05T01:50:32;10.68;;;5.55;;
59006;SDS011;44792;52.760;6.726;2023-04-05T01:52:58;10.23;;;5.85;;
59006;SDS011;44792;52.760;6.726;2023-04-05T01:55:23;8.40;;;5.50;;
59006;SDS011;44792;52.760;6.726;2023-04-05T01:57:50;9.73;;;5.50;;
59006;SDS011;44792;52.760;6.726;2023-04-05T02:00:16;7.32;;;5.07;;
59006;SDS011;44792;52.760;6.726;2023-04-05T02:02:42;8.23;;;5.47;;
59006;SDS011;44792;52.760;6.726;2023-04-05T02:05:08;9.00;;;5.57;;
59006;SDS011;44792;52.760;6.726;2023-04-05T02:07:34;14.23;;;5.63;;
59006;SDS011;44792;52.760;6.726;2023-04-05T02:09:59;9.07;;;5.88;;
59006;SDS011;44792;52.760;6.726;2023-04-05T02:12:25;10.57;;;5.28;;
59006;SDS011;44792;52.760;6.726;2023-04-05T02:14:51;10.18;;;5.82;;
59006;SDS011;44792;52.760;6.726;2023-04-05T02:17:17;12.93;;;5.93;;
59006;SDS011;44792;52.760;6.726;2023-04-05T02:19:43;12.90;;;6.05;;
59006;SDS011;44792;52.760;6.726;2023-04-05T02:22:10;8.00;;;5.07;;
59006;SDS011;44792;52.760;6.726;2023-04-05T02:24:36;10.02;;;6.10;;
59006;SDS011;44792;52.760;6.726;2023-04-05T02:27:02;12.20;;;6.05;;
59006;SDS011;44792;52.760;6.726;2023-04-05T02:29:28;9.70;;;5.30;;
59006;SDS011;44792;52.760;6.726;2023-04-05T02:31:56;8.20;;;5.50;;
59006;SDS011;44792;52.760;6.726;2023-04-05T02:34:22;8.82;;;5.70;;
59006;SDS011;44792;52.760;6.726;2023-04-05T02:36:49;11.85;;;6.07;;
59006;SDS011;44792;52.760;6.726;2023-04-05T02:39:15;10.95;;;6.40;;
59006;SDS011;44792;52.760;6.726;2023-04-05T02:41:41;11.85;;;6.20;;
59006;SDS011;44792;52.760;6.726;2023-04-05T02:44:06;10.48;;;5.63;;
59006;SDS011;44792;52.760;6.726;2023-04-05T02:46:32;11.32;;;5.07;;
59006;SDS011;44792;52.760;6.726;2023-04-05T02:48:58;8.82;;;4.88;;
59006;SDS011;44792;52.760;6.726;2023-04-05T02:51:23;11.55;;;5.63;;
59006;SDS011;44792;52.760;6.726;2023-04-05T02:53:50;10.95;;;5.72;;
59006;SDS011;44792;52.760;6.726;2023-04-05T02:56:17;7.47;;;4.85;;
59006;SDS011;44792;52.760;6.726;2023-04-05T02:58:43;9.45;;;5.93;;
59006;SDS011;44792;52.760;6.726;2023-04-05T03:01:09;14.23;;;5.68;;
59006;SDS011;44792;52.760;6.726;2023-04-05T03:03:36;9.85;;;6.55;;
59006;SDS011;44792;52.760;6.726;2023-04-05T03:06:04;10.68;;;6.28;;
59006;SDS011;44792;52.760;6.726;2023-04-05T03:08:41;13.07;;;6.75;;
59006;SDS011;44792;52.760;6.726;2023-04-05T03:11:10;17.10;;;7.72;;
59006;SDS011;44792;52.760;6.726;2023-04-05T03:13:36;14.20;;;7.03;;
59006;SDS011;44792;52.760;6.726;2023-04-05T03:16:03;13.60;;;6.57;;
59006;SDS011;44792;52.760;6.726;2023-04-05T03:18:29;13.13;;;6.45;;
59006;SDS011;44792;52.760;6.726;2023-04-05T03:20:55;10.20;;;6.55;;
59006;SDS011;44792;52.760;6.726;2023-04-05T03:23:22;13.23;;;6.85;;
59006;SDS011;44792;52.760;6.726;2023-04-05T03:26:01;11.75;;;6.40;;
59006;SDS011;44792;52.760;6.726;2023-04-05T03:28:28;11.90;;;6.90;;
59006;SDS011;44792;52.760;6.726;2023-04-05T03:30:58;13.20;;;7.20;;
59006;SDS011;44792;52.760;6.726;2023-04-05T03:33:23;10.90;;;6.45;;
59006;SDS011;44792;52.760;6.726;2023-04-05T03:35:49;8.07;;;6.13;;
59006;SDS011;44792;52.760;6.726;2023-04-05T03:38:15;8.68;;;5.50;;
59006;SDS011;44792;52.760;6.726;2023-04-05T03:40:41;12.00;;;6.10;;
59006;SDS011;44792;52.760;6.726;2023-04-05T03:43:07;10.60;;;7.05;;
59006;SDS011;44792;52.760;6.726;2023-04-05T03:45:33;11.60;;;6.20;;
59006;SDS011;44792;52.760;6.726;2023-04-05T03:47:58;11.43;;;6.28;;
59006;SDS011;44792;52.760;6.726;2023-04-05T03:50:25;13.25;;;6.45;;
59006;SDS011;44792;52.760;6.726;2023-04-05T03:52:51;11.25;;;6.32;;
59006;SDS011;44792;52.760;6.726;2023-04-05T03:55:17;12.50;;;6.45;;
59006;SDS011;44792;52.760;6.726;2023-04-05T03:57:43;10.40;;;6.25;;
59006;SDS011;44792;52.760;6.726;2023-04-05T04:00:09;12.00;;;6.57;;
59006;SDS011;44792;52.760;6.726;2023-04-05T04:02:47;12.55;;;6.05;;
59006;SDS011;44792;52.760;6.726;2023-04-05T04:05:14;11.05;;;5.97;;
59006;SDS011;44792;52.760;6.726;2023-04-05T04:07:41;8.88;;;5.60;;
59006;SDS011;44792;52.760;6.726;2023-04-05T04:10:12;11.07;;;6.10;;
59006;SDS011;44792;52.760;6.726;2023-04-05T04:12:40;9.82;;;6.20;;
59006;SDS011;44792;52.760;6.726;2023-04-05T04:15:06;9.68;;;6.43;;
59006;SDS011;44792;52.760;6.726;2023-04-05T04:17:33;11.60;;;6.78;;
59006;SDS011;44792;52.760;6.726;2023-04-05T04:20:00;10.63;;;6.38;;
59006;SDS011;44792;52.760;6.726;2023-04-05T04:22:32;13.38;;;6.55;;
59006;SDS011;44792;52.760;6.726;2023-04-05T04:24:58;10.80;;;6.45;;
59006;SDS011;44792;52.760;6.726;2023-04-05T04:27:27;10.15;;;5.82;;
59006;SDS011;44792;52.760;6.726;2023-04-05T04:29:54;10.52;;;6.18;;
59006;SDS011;44792;52.760;6.726;2023-04-05T04:32:25;14.38;;;6.38;;
59006;SDS011;44792;52.760;6.726;2023-04-05T04:35:14;9.52;;;5.95;;
59006;SDS011;44792;52.760;6.726;2023-04-05T04:38:10;10.82;;;5.85;;
59006;SDS011;44792;52.760;6.726;2023-04-05T04:40:35;11.10;;;6.07;;
59006;SDS011;44792;52.760;6.726;2023-04-05T04:43:05;11.15;;;7.13;;
59006;SDS011;44792;52.760;6.726;2023-04-05T04:45:34;10.63;;;6.78;;
59006;SDS011;44792;52.760;6.726;2023-04-05T04:48:01;9.55;;;6.53;;
59006;SDS011;44792;52.760;6.726;2023-04-05T04:50:29;10.95;;;6.80;;
59006;SDS011;44792;52.760;6.726;2023-04-05T04:52:56;10.52;;;6.88;;
59006;SDS011;44792;52.760;6.726;2023-04-05T04:55:23;13.27;;;6.38;;
59006;SDS011;44792;52.760;6.726;2023-04-05T04:57:51;14.13;;;7.32;;
59006;SDS011;44792;52.760;6.726;2023-04-05T05:00:19;13.13;;;6.65;;
59006;SDS011;44792;52.760;6.726;2023-04-05T05:02:45;12.15;;;6.65;;
59006;SDS011;44792;52.760;6.726;2023-04-05T05:05:11;14.73;;;7.35;;
59006;SDS011;44792;52.760;6.726;2023-04-05T05:07:38;13.23;;;7.55;;
59006;SDS011;44792;52.760;6.726;2023-04-05T05:10:08;13.15;;;6.95;;
59006;SDS011;44792;52.760;6.726;2023-04-05T05:12:36;12.98;;;6.95;;
59006;SDS011;44792;52.760;6.726;2023-04-05T05:15:02;14.65;;;8.68;;
59006;SDS011;44792;52.760;6.726;2023-04-05T05:17:28;12.32;;;7.20;;
59006;SDS011;44792;52.760;6.726;2023-04-05T05:19:56;14.40;;;8.23;;
59006;SDS011;44792;52.760;6.726;2023-04-05T05:22:24;11.65;;;8.13;;
59006;SDS011;44792;52.760;6.726;2023-04-05T05:24:51;16.15;;;8.73;;
59006;SDS011;44792;52.760;6.726;2023-04-05T05:27:17;19.00;;;7.80;;
59006;SDS011;44792;52.760;6.726;2023-04-05T05:29:43;15.13;;;8.15;;
59006;SDS011;44792;52.760;6.726;2023-04-05T05:32:08;17.17;;;9.35;;
59006;SDS011;44792;52.760;6.726;2023-04-05T05:34:39;16.42;;;8.88;;
59006;SDS011;44792;52.760;6.726;2023-04-05T05:37:05;18.75;;;8.65;;
59006;SDS011;44792;52.760;6.726;2023-04-05T05:39:33;14.35;;;8.48;;
59006;SDS011;44792;52.760;6.726;2023-04-05T05:42:00;12.48;;;7.38;;
59006;SDS011;44792;52.760;6.726;2023-04-05T05:44:27;11.77;;;8.63;;
59006;SDS011;44792;52.760;6.726;2023-04-05T05:46:53;14.00;;;8.65;;
59006;SDS011;44792;52.760;6.726;2023-04-05T05:49:19;16.17;;;7.90;;
59006;SDS011;44792;52.760;6.726;2023-04-05T05:51:45;18.33;;;8.63;;
59006;SDS011;44792;52.760;6.726;2023-04-05T05:54:11;14.65;;;8.88;;
59006;SDS011;44792;52.760;6.726;2023-04-05T05:56:37;14.77;;;8.38;;
59006;SDS011;44792;52.760;6.726;2023-04-05T05:59:03;13.77;;;8.05;;
59006;SDS011;44792;52.760;6.726;2023-04-05T06:01:28;14.20;;;8.50;;
59006;SDS011;44792;52.760;6.726;2023-04-05T06:03:54;11.93;;;7.82;;
59006;SDS011;44792;52.760;6.726;2023-04-05T06:06:20;18.73;;;9.00;;
59006;SDS011;44792;52.760;6.726;2023-04-05T06:08:46;16.02;;;9.25;;
59006;SDS011;44792;52.760;6.726;2023-04-05T06:11:17;13.98;;;8.95;;
59006;SDS011;44792;52.760;6.726;2023-04-05T06:13:43;20.45;;;11.57;;
59006;SDS011;44792;52.760;6.726;2023-04-05T06:16:09;17.85;;;10.73;;
59006;SDS011;44792;52.760;6.726;2023-04-05T06:18:35;18.45;;;11.40;;
59006;SDS011;44792;52.760;6.726;2023-04-05T06:21:01;15.35;;;9.85;;
59006;SDS011;44792;52.760;6.726;2023-04-05T06:23:27;16.00;;;9.02;;
59006;SDS011;44792;52.760;6.726;2023-04-05T06:25:52;16.63;;;9.80;;
59006;SDS011;44792;52.760;6.726;2023-04-05T06:28:20;22.02;;;9.25;;
59006;SDS011;44792;52.760;6.726;2023-04-05T06:30:46;18.13;;;9.88;;
59006;SDS011;44792;52.760;6.726;2023-04-05T06:33:12;16.42;;;9.23;;
59006;SDS011;44792;52.760;6.726;2023-04-05T06:35:37;14.43;;;9.05;;
59006;SDS011;44792;52.760;6.726;2023-04-05T06:38:03;18.33;;;9.32;;
59006;SDS011;44792;52.760;6.726;2023-04-05T06:40:28;24.17;;;11.55;;
59006;SDS011;44792;52.760;6.726;2023-04-05T06:42:54;13.65;;;9.68;;
59006;SDS011;44792;52.760;6.726;2023-04-05T06:45:20;18.67;;;10.00;;
59006;SDS011;44792;52.760;6.726;2023-04-05T06:47:45;16.77;;;9.70;;
59006;SDS011;44792;52.760;6.726;2023-04-05T06:50:11;20.50;;;9.82;;
59006;SDS011;44792;52.760;6.726;2023-04-05T06:52:37;18.42;;;10.05;;
59006;SDS011;44792;52.760;6.726;2023-04-05T06:55:03;16.92;;;9.85;;
59006;SDS011;44792;52.760;6.726;2023-04-05T06:57:29;16.02;;;10.05;;
59006;SDS011;44792;52.760;6.726;2023-04-05T06:59:55;19.70;;;10.38;;
59006;SDS011;44792;52.760;6.726;2023-04-05T07:02:21;18.52;;;9.88;;
59006;SDS011;44792;52.760;6.726;2023-04-05T07:04:47;17.08;;;9.77;;
59006;SDS011;44792;52.760;6.726;2023-04-05T07:07:13;17.17;;;9.80;;
59006;SDS011;44792;52.760;6.726;2023-04-05T07:09:39;17.60;;;9.93;;
59006;SDS011;44792;52.760;6.726;2023-04-05T07:12:05;16.13;;;9.98;;
59006;SDS011;44792;52.760;6.726;2023-04-05T07:14:32;15.18;;;9.48;;
59006;SDS011;44792;52.760;6.726;2023-04-05T07:16:58;13.48;;;8.93;;
59006;SDS011;44792;52.760;6.726;2023-04-05T07:19:24;19.02;;;9.77;;
59006;SDS011;44792;52.760;6.726;2023-04-05T07:21:50;17.08;;;10.13;;
59006;SDS011;44792;52.760;6.726;2023-04-05T07:24:16;14.55;;;9.05;;
59006;SDS011;44792;52.760;6.726;2023-04-05T07:26:42;14.63;;;9.05;;
59006;SDS011;44792;52.760;6.726;2023-04-05T07:29:09;14.88;;;8.55;;
59006;SDS011;44792;52.760;6.726;2023-04-05T07:31:35;15.55;;;9.07;;
59006;SDS011;44792;52.760;6.726;2023-04-05T07:34:02;14.23;;;9.40;;
59006;SDS011;44792;52.760;6.726;2023-04-05T07:36:28;12.57;;;9.50;;
59006;SDS011;44792;52.760;6.726;2023-04-05T07:38:55;16.00;;;9.27;;
59006;SDS011;44792;52.760;6.726;2023-04-05T07:41:21;16.75;;;9.18;;
59006;SDS011;44792;52.760;6.726;2023-04-05T07:43:48;17.90;;;9.35;;
59006;SDS011;44792;52.760;6.726;2023-04-05T07:46:14;12.80;;;8.93;;
59006;SDS011;44792;52.760;6.726;2023-04-05T07:48:40;13.70;;;8.23;;
59006;SDS011;44792;52.760;6.726;2023-04-05T07:51:06;13.43;;;8.80;;
59006;SDS011;44792;52.760;6.726;2023-04-05T07:53:34;10.95;;;8.27;;
59006;SDS011;44792;52.760;6.726;2023-04-05T07:56:04;18.35;;;7.63;;
59006;SDS011;44792;52.760;6.726;2023-04-05T07:58:31;12.32;;;8.52;;
59006;SDS011;44792;52.760;6.726;2023-04-05T08:01:00;12.35;;;8.00;;
59006;SDS011;44792;52.760;6.726;2023-04-05T08:03:27;9.60;;;7.13;;
59006;SDS011;44792;52.760;6.726;2023-04-05T08:05:53;12.02;;;7.00;;
59006;SDS011;44792;52.760;6.726;2023-04-05T08:08:19;12.23;;;7.50;;
59006;SDS011;44792;52.760;6.726;2023-04-05T08:10:44;11.45;;;8.32;;
59006;SDS011;44792;52.760;6.726;2023-04-05T08:13:10;13.95;;;8.48;;
59006;SDS011;44792;52.760;6.726;2023-04-05T08:15:36;13.07;;;7.90;;
59006;SDS011;44792;52.760;6.726;2023-04-05T08:18:02;13.10;;;7.45;;
59006;SDS011;44792;52.760;6.726;2023-04-05T08:20:27;13.05;;;7.10;;
59006;SDS011;44792;52.760;6.726;2023-04-05T08:22:53;11.02;;;6.80;;
59006;SDS011;44792;52.760;6.726;2023-04-05T08:25:19;11.15;;;6.97;;
59006;SDS011;44792;52.760;6.726;2023-04-05T08:27:44;13.82;;;6.60;;
59006;SDS011;44792;52.760;6.726;2023-04-05T08:30:10;10.05;;;6.38;;
59006;SDS011;44792;52.760;6.726;2023-04-05T08:32:36;9.23;;;6.03;;
59006;SDS011;44792;52.760;6.726;2023-04-05T08:35:02;8.57;;;5.70;;
59006;SDS011;44792;52.760;6.726;2023-04-05T08:37:28;9.15;;;5.47;;
59006;SDS011;44792;52.760;6.726;2023-04-05T08:39:53;7.65;;;4.90;;
59006;SDS011;44792;52.760;6.726;2023-04-05T08:42:28;9.10;;;6.43;;
59006;SDS011;44792;52.760;6.726;2023-04-05T08:44:56;8.55;;;5.03;;
59006;SDS011;44792;52.760;6.726;2023-04-05T08:47:24;8.88;;;5.55;;
59006;SDS011;44792;52.760;6.726;2023-04-05T08:49:51;8.82;;;5.22;;
59006;SDS011;44792;52.760;6.726;2023-04-05T08:52:17;11.15;;;5.03;;
59006;SDS011;44792;52.760;6.726;2023-04-05T08:54:43;7.65;;;5.03;;
59006;SDS011;44792;52.760;6.726;2023-04-05T08:57:09;8.30;;;4.43;;
59006;SDS011;44792;52.760;6.726;2023-04-05T08:59:36;8.15;;;4.30;;
59006;SDS011;44792;52.760;6.726;2023-04-05T09:02:13;8.85;;;4.00;;
59006;SDS011;44792;52.760;6.726;2023-04-05T09:04:42;7.05;;;4.45;;
59006;SDS011;44792;52.760;6.726;2023-04-05T09:07:09;6.40;;;3.67;;
59006;SDS011;44792;52.760;6.726;2023-04-05T09:09:37;6.40;;;3.90;;
59006;SDS011;44792;52.760;6.726;2023-04-05T09:12:06;8.55;;;4.18;;
59006;SDS011;44792;52.760;6.726;2023-04-05T09:14:33;10.75;;;4.35;;
59006;SDS011;44792;52.760;6.726;2023-04-05T09:17:01;6.53;;;4.25;;
59006;SDS011;44792;52.760;6.726;2023-04-05T09:19:27;6.70;;;4.10;;
59006;SDS011;44792;52.760;6.726;2023-04-05T09:24:30;5.68;;;3.67;;
59006;SDS011;44792;52.760;6.726;2023-04-05T09:27:15;5.95;;;3.00;;
59006;SDS011;44792;52.760;6.726;2023-04-05T09:29:46;7.00;;;3.45;;
59006;SDS011;44792;52.760;6.726;2023-04-05T09:32:13;5.35;;;3.20;;
59006;SDS011;44792;52.760;6.726;2023-04-05T09:34:43;6.75;;;2.53;;
59006;SDS011;44792;52.760;6.726;2023-04-05T09:37:16;4.57;;;3.10;;
59006;SDS011;44792;52.760;6.726;2023-04-05T09:39:43;5.53;;;3.42;;
59006;SDS011;44792;52.760;6.726;2023-04-05T09:42:14;5.63;;;3.78;;
59006;SDS011;44792;52.760;6.726;2023-04-05T09:44:51;8.43;;;4.82;;
59006;SDS011;44792;52.760;6.726;2023-04-05T09:47:19;5.57;;;3.80;;
59006;SDS011;44792;52.760;6.726;2023-04-05T09:49:45;5.20;;;3.63;;
59006;SDS011;44792;52.760;6.726;2023-04-05T09:52:27;8.80;;;3.42;;
59006;SDS011;44792;52.760;6.726;2023-04-05T09:54:57;5.35;;;3.42;;
59006;SDS011;44792;52.760;6.726;2023-04-05T09:57:27;6.05;;;3.95;;
59006;SDS011;44792;52.760;6.726;2023-04-05T09:59:57;5.93;;;4.03;;
59006;SDS011;44792;52.760;6.726;2023-04-05T10:02:23;4.90;;;3.72;;
59006;SDS011;44792;52.760;6.726;2023-04-05T10:04:49;6.30;;;3.90;;
59006;SDS011;44792;52.760;6.726;2023-04-05T10:07:16;6.88;;;3.88;;
59006;SDS011;44792;52.760;6.726;2023-04-05T10:09:44;5.53;;;3.47;;
59006;SDS011;44792;52.760;6.726;2023-04-05T10:12:12;4.53;;;3.63;;
59006;SDS011;44792;52.760;6.726;2023-04-05T10:14:45;6.57;;;3.90;;
59006;SDS011;44792;52.760;6.726;2023-04-05T10:25:08;6.82;;;4.50;;
59006;SDS011;44792;52.760;6.726;2023-04-05T10:27:47;5.22;;;3.60;;
59006;SDS011;44792;52.760;6.726;2023-04-05T10:30:20;5.55;;;4.30;;
59006;SDS011;44792;52.760;6.726;2023-04-05T10:35:55;7.63;;;3.72;;
59006;SDS011;44792;52.760;6.726;2023-04-05T10:41:20;6.97;;;4.20;;
59006;SDS011;44792;52.760;6.726;2023-04-05T10:43:45;8.48;;;4.20;;
59006;SDS011;44792;52.760;6.726;2023-04-05T10:46:13;9.00;;;4.25;;
59006;SDS011;44792;52.760;6.726;2023-04-05T10:48:58;10.02;;;4.07;;
59006;SDS011;44792;52.760;6.726;2023-04-05T10:51:33;5.38;;;3.70;;
59006;SDS011;44792;52.760;6.726;2023-04-05T10:53:59;5.90;;;4.43;;
59006;SDS011;44792;52.760;6.726;2023-04-05T10:56:25;9.82;;;4.20;;
59006;SDS011;44792;52.760;6.726;2023-04-05T10:58:52;6.13;;;3.78;;
59006;SDS011;44792;52.760;6.726;2023-04-05T11:01:19;6.32;;;3.42;;
59006;SDS011;44792;52.760;6.726;2023-04-05T11:03:47;8.05;;;3.97;;
59006;SDS011;44792;52.760;6.726;2023-04-05T11:11:39;9.15;;;4.20;;
59006;SDS011;44792;52.760;6.726;2023-04-05T11:14:36;6.93;;;3.97;;
59006;SDS011;44792;52.760;6.726;2023-04-05T11:17:02;10.13;;;3.58;;
59006;SDS011;44792;52.760;6.726;2023-04-05T11:22:13;6.93;;;4.43;;
59006;SDS011;44792;52.760;6.726;2023-04-05T11:24:51;5.80;;;3.90;;
59006;SDS011;44792;52.760;6.726;2023-04-05T11:29:55;6.53;;;3.85;;
59006;SDS011;44792;52.760;6.726;2023-04-05T11:32:23;5.60;;;4.00;;
59006;SDS011;44792;52.760;6.726;2023-04-05T11:35:05;6.38;;;4.18;;
59006;SDS011;44792;52.760;6.726;2023-04-05T11:40:52;6.25;;;4.57;;
59006;SDS011;44792;52.760;6.726;2023-04-05T11:43:11;11.93;;;4.32;;
59006;SDS011;44792;52.760;6.726;2023-04-05T11:45:37;11.10;;;4.95;;
59006;SDS011;44792;52.760;6.726;2023-04-05T11:48:06;9.00;;;4.07;;
59006;SDS011;44792;52.760;6.726;2023-04-05T11:50:37;7.78;;;3.97;;
59006;SDS011;44792;52.760;6.726;2023-04-05T11:53:12;5.47;;;4.13;;
59006;SDS011;44792;52.760;6.726;2023-04-05T11:55:40;5.55;;;3.47;;
59006;SDS011;44792;52.760;6.726;2023-04-05T11:58:17;4.63;;;3.65;;
59006;SDS011;44792;52.760;6.726;2023-04-05T12:00:46;6.68;;;4.47;;
59006;SDS011;44792;52.760;6.726;2023-04-05T12:03:20;5.32;;;3.60;;
59006;SDS011;44792;52.760;6.726;2023-04-05T12:05:49;7.60;;;3.90;;
59006;SDS011;44792;52.760;6.726;2023-04-05T12:08:20;7.95;;;4.25;;
59006;SDS011;44792;52.760;6.726;2023-04-05T12:10:53;9.25;;;4.40;;
59006;SDS011;44792;52.760;6.726;2023-04-05T12:13:26;5.53;;;4.55;;
59006;SDS011;44792;52.760;6.726;2023-04-05T12:15:53;5.28;;;3.72;;
59006;SDS011;44792;52.760;6.726;2023-04-05T12:18:26;5.30;;;3.78;;
59006;SDS011;44792;52.760;6.726;2023-04-05T12:20:53;6.82;;;4.13;;
59006;SDS011;44792;52.760;6.726;2023-04-05T12:23:20;8.57;;;4.60;;
59006;SDS011;44792;52.760;6.726;2023-04-05T12:25:47;6.72;;;4.25;;
59006;SDS011;44792;52.760;6.726;2023-04-05T12:28:13;5.10;;;4.22;;
59006;SDS011;44792;52.760;6.726;2023-04-05T12:30:49;5.70;;;4.10;;
59006;SDS011;44792;52.760;6.726;2023-04-05T12:33:24;7.32;;;4.20;;
59006;SDS011;44792;52.760;6.726;2023-04-05T12:35:51;8.55;;;4.50;;
59006;SDS011;44792;52.760;6.726;2023-04-05T12:38:17;9.50;;;4.07;;
59006;SDS011;44792;52.760;6.726;2023-04-05T12:40:42;7.18;;;4.35;;
59006;SDS011;44792;52.760;6.726;2023-04-05T12:43:09;9.40;;;4.70;;
59006;SDS011;44792;52.760;6.726;2023-04-05T12:45:34;5.65;;;4.28;;
59006;SDS011;44792;52.760;6.726;2023-04-05T12:48:28;4.93;;;4.10;;
59006;SDS011;44792;52.760;6.726;2023-04-05T12:50:53;8.75;;;3.83;;
59006;SDS011;44792;52.760;6.726;2023-04-05T12:53:20;8.82;;;4.07;;
59006;SDS011;44792;52.760;6.726;2023-04-05T12:55:48;5.30;;;3.38;;
59006;SDS011;44792;52.760;6.726;2023-04-05T12:58:15;6.63;;;3.67;;
59006;SDS011;44792;52.760;6.726;2023-04-05T13:00:42;4.30;;;3.60;;
59006;SDS011;44792;52.760;6.726;2023-04-05T13:03:14;6.90;;;3.42;;
59006;SDS011;44792;52.760;6.726;2023-04-05T13:05:45;6.63;;;4.00;;
59006;SDS011;44792;52.760;6.726;2023-04-05T13:08:12;6.82;;;3.97;;
59006;SDS011;44792;52.760;6.726;2023-04-05T13:10:38;4.30;;;3.28;;
59006;SDS011;44792;52.760;6.726;2023-04-05T13:13:03;5.18;;;3.85;;
59006;SDS011;44792;52.760;6.726;2023-04-05T13:15:29;6.32;;;3.95;;
59006;SDS011;44792;52.760;6.726;2023-04-05T13:17:56;4.75;;;3.70;;
59006;SDS011;44792;52.760;6.726;2023-04-05T13:20:22;6.13;;;3.72;;
59006;SDS011;44792;52.760;6.726;2023-04-05T13:22:48;6.45;;;3.72;;
59006;SDS011;44792;52.760;6.726;2023-04-05T13:25:14;5.53;;;3.28;;
59006;SDS011;44792;52.760;6.726;2023-04-05T13:27:40;6.10;;;3.70;;
59006;SDS011;44792;52.760;6.726;2023-04-05T13:30:06;5.25;;;4.75;;
59006;SDS011;44792;52.760;6.726;2023-04-05T13:32:32;5.55;;;4.03;;
59006;SDS011;44792;52.760;6.726;2023-04-05T13:34:58;5.70;;;4.00;;
59006;SDS011;44792;52.760;6.726;2023-04-05T13:37:24;5.47;;;3.92;;
59006;SDS011;44792;52.760;6.726;2023-04-05T13:39:49;5.90;;;4.00;;
59006;SDS011;44792;52.760;6.726;2023-04-05T13:42:15;4.88;;;3.67;;
59006;SDS011;44792;52.760;6.726;2023-04-05T13:44:41;6.47;;;3.78;;
59006;SDS011;44792;52.760;6.726;2023-04-05T13:47:07;4.63;;;3.40;;
59006;SDS011;44792;52.760;6.726;2023-04-05T13:49:33;5.30;;;4.05;;
59006;SDS011;44792;52.760;6.726;2023-04-05T13:51:58;8.57;;;3.92;;
59006;SDS011;44792;52.760;6.726;2023-04-05T13:54:24;7.68;;;4.65;;
59006;SDS011;44792;52.760;6.726;2023-04-05T13:56:50;5.90;;;3.65;;
59006;SDS011;44792;52.760;6.726;2023-04-05T13:59:16;6.40;;;4.15;;
59006;SDS011;44792;52.760;6.726;2023-04-05T14:01:43;5.95;;;3.70;;
59006;SDS011;44792;52.760;6.726;2023-04-05T14:04:12;4.82;;;4.13;;
59006;SDS011;44792;52.760;6.726;2023-04-05T14:06:39;7.78;;;3.88;;
59006;SDS011;44792;52.760;6.726;2023-04-05T14:09:05;7.07;;;4.55;;
59006;SDS011;44792;52.760;6.726;2023-04-05T14:11:31;6.60;;;4.18;;
59006;SDS011;44792;52.760;6.726;2023-04-05T14:13:57;6.35;;;4.13;;
59006;SDS011;44792;52.760;6.726;2023-04-05T14:16:23;9.02;;;4.68;;
59006;SDS011;44792;52.760;6.726;2023-04-05T14:18:49;4.13;;;3.42;;
59006;SDS011;44792;52.760;6.726;2023-04-05T14:21:14;5.55;;;4.15;;
59006;SDS011;44792;52.760;6.726;2023-04-05T14:23:40;6.25;;;4.18;;
59006;SDS011;44792;52.760;6.726;2023-04-05T14:26:06;4.20;;;3.72;;
59006;SDS011;44792;52.760;6.726;2023-04-05T14:28:32;6.97;;;4.13;;
59006;SDS011;44792;52.760;6.726;2023-04-05T14:30:58;4.40;;;4.00;;
59006;SDS011;44792;52.760;6.726;2023-04-05T14:33:24;9.70;;;4.85;;
59006;SDS011;44792;52.760;6.726;2023-04-05T14:35:51;5.15;;;3.85;;
59006;SDS011;44792;52.760;6.726;2023-04-05T14:38:17;4.85;;;4.15;;
59006;SDS011;44792;52.760;6.726;2023-04-05T14:40:43;6.93;;;4.32;;
59006;SDS011;44792;52.760;6.726;2023-04-05T14:43:08;6.22;;;4.22;;
59006;SDS011;44792;52.760;6.726;2023-04-05T14:45:35;5.88;;;4.15;;
59006;SDS011;44792;52.760;6.726;2023-04-05T14:48:00;5.80;;;3.90;;
59006;SDS011;44792;52.760;6.726;2023-04-05T14:50:26;5.18;;;3.80;;
59006;SDS011;44792;52.760;6.726;2023-04-05T14:52:56;8.07;;;4.05;;
59006;SDS011;44792;52.760;6.726;2023-04-05T14:55:24;4.80;;;3.55;;
59006;SDS011;44792;52.760;6.726;2023-04-05T14:57:49;7.55;;;4.38;;
59006;SDS011;44792;52.760;6.726;2023-04-05T15:00:15;8.25;;;4.20;;
59006;SDS011;44792;52.760;6.726;2023-04-05T15:02:41;6.00;;;3.65;;
59006;SDS011;44792;52.760;6.726;2023-04-05T15:05:09;5.63;;;3.58;;
59006;SDS011;44792;52.760;6.726;2023-04-05T15:07:35;6.22;;;4.00;;
59006;SDS011;44792;52.760;6.726;2023-04-05T15:10:00;5.38;;;4.00;;
59006;SDS011;44792;52.760;6.726;2023-04-05T15:12:26;7.18;;;4.18;;
59006;SDS011;44792;52.760;6.726;2023-04-05T15:14:52;5.55;;;3.83;;
59006;SDS011;44792;52.760;6.726;2023-04-05T15:17:18;4.10;;;3.33;;
59006;SDS011;44792;52.760;6.726;2023-04-05T15:19:45;7.28;;;3.67;;
59006;SDS011;44792;52.760;6.726;2023-04-05T15:22:11;4.72;;;4.05;;
59006;SDS011;44792;52.760;6.726;2023-04-05T15:24:38;7.88;;;3.90;;